Time;durP1;ratioP1;P1;durP2;ratioP2;P2;SDS_P1;SDS_P2;PMS_P1;PMS_P2;Temp;Humidity;BMP_temperature;BMP_pressure;BME280_temperature;BME280_humidity;BME280_pressure;Samples;Min_cycle;Max_cycle;Signal;HPM_P1;HPM_P2
2021/12/26 00:01:38;;;;;;;7.22;2.85;;;-6.90;99.90;;;;;;5078504;28;20044;-81
2021/12/26 00:04:06;;;;;;;4.22;2.85;;;-6.90;99.90;;;;;;5049994;28;20364;-81
2021/12/26 00:06:32;;;;;;;9.88;3.78;;;-7.00;99.90;;;;;;5075922;28;20211;-81
2021/12/26 00:08:59;;;;;;;6.63;3.20;;;-7.00;99.90;;;;;;5072940;28;20475;-81
2021/12/26 00:11:26;;;;;;;6.22;3.38;;;-7.00;99.90;;;;;;5052111;28;20043;-81
2021/12/26 00:13:53;;;;;;;4.43;2.90;;;-6.90;99.90;;;;;;5072179;28;20040;-81
2021/12/26 00:16:22;;;;;;;6.53;3.30;;;-6.90;99.90;;;;;;5051928;28;20531;-81
2021/12/26 00:18:48;;;;;;;4.38;2.92;;;-6.90;99.90;;;;;;5066839;28;20345;-81
2021/12/26 00:21:17;;;;;;;5.25;2.92;;;-6.80;99.90;;;;;;5059926;28;20024;-81
2021/12/26 00:23:43;;;;;;;4.75;2.90;;;-6.80;99.90;;;;;;5077971;28;20036;-81
2021/12/26 00:26:09;;;;;;;4.20;2.65;;;-6.80;99.90;;;;;;5061101;28;20047;-81
2021/12/26 00:28:37;;;;;;;5.80;2.85;;;-6.80;99.90;;;;;;5058909;28;20430;-81
2021/12/26 00:31:04;;;;;;;4.07;2.60;;;-6.80;99.90;;;;;;5061435;28;20044;-81
2021/12/26 00:33:31;;;;;;;10.48;4.00;;;-6.80;99.90;;;;;;5051925;28;20044;-81
2021/12/26 00:35:58;;;;;;;7.80;3.22;;;-6.80;99.90;;;;;;5065026;28;20495;-81
2021/12/26 00:38:23;;;;;;;7.55;3.08;;;-6.70;99.90;;;;;;5052206;28;20179;-81
2021/12/26 00:40:50;;;;;;;5.60;3.35;;;-6.70;99.90;;;;;;5061358;28;20123;-81
2021/12/26 00:43:19;;;;;;;8.38;3.60;;;-6.70;99.90;;;;;;5056421;28;20132;-81
2021/12/26 00:45:45;;;;;;;6.28;3.10;;;-6.60;99.90;;;;;;5055459;28;20040;-81
2021/12/26 00:48:11;;;;;;;6.07;3.40;;;-6.70;99.90;;;;;;5050373;28;20065;-81
2021/12/26 00:50:40;;;;;;;7.03;3.20;;;-6.70;99.90;;;;;;5065430;28;20045;-81
2021/12/26 00:53:10;;;;;;;8.23;3.40;;;-6.70;99.90;;;;;;5074328;28;20059;-81
2021/12/26 00:55:37;;;;;;;6.57;3.47;;;-6.70;99.90;;;;;;5051952;28;20096;-81
2021/12/26 00:58:03;;;;;;;7.20;3.70;;;-6.70;99.90;;;;;;5047666;28;20476;-81
2021/12/26 01:00:32;;;;;;;5.75;3.65;;;-6.70;99.90;;;;;;5048891;28;20427;-81
2021/12/26 01:03:02;;;;;;;7.20;3.60;;;-6.70;99.90;;;;;;5063836;28;20033;-81
2021/12/26 01:05:30;;;;;;;5.72;3.20;;;-6.70;99.90;;;;;;5062489;28;20048;-81
2021/12/26 01:08:01;;;;;;;8.25;3.13;;;-6.80;99.90;;;;;;5057973;28;20093;-81
2021/12/26 01:10:40;;;;;;;6.88;3.25;;;-6.80;99.90;;;;;;5046469;28;20111;-81
2021/12/26 01:13:17;;;;;;;6.70;3.10;;;-6.80;99.90;;;;;;5058105;28;20157;-81
2021/12/26 01:15:44;;;;;;;8.68;3.60;;;-6.70;99.90;;;;;;5064318;28;20048;-81
2021/12/26 01:18:10;;;;;;;6.88;3.40;;;-6.80;99.90;;;;;;5064478;28;20123;-81
2021/12/26 01:20:49;;;;;;;10.10;3.50;;;-6.90;99.90;;;;;;5051941;28;20115;-80
2021/12/26 01:23:17;;;;;;;6.88;3.60;;;-6.90;99.90;;;;;;5050688;28;20051;-81
2021/12/26 01:25:44;;;;;;;5.43;3.00;;;-6.90;99.90;;;;;;5067428;28;20063;-81
2021/12/26 01:28:10;;;;;;;5.50;3.13;;;-6.90;99.90;;;;;;5052860;28;20131;-81
2021/12/26 01:30:38;;;;;;;4.95;3.03;;;-6.90;99.90;;;;;;5053578;28;20066;-80
2021/12/26 01:33:10;;;;;;;6.65;2.95;;;-7.00;99.90;;;;;;5053856;28;20636;-81
2021/12/26 01:35:37;;;;;;;5.65;2.83;;;-7.00;99.90;;;;;;5045822;28;20041;-81
2021/12/26 01:38:03;;;;;;;6.85;3.00;;;-7.10;99.90;;;;;;5049775;28;20029;-80
2021/12/26 01:40:31;;;;;;;7.57;3.00;;;-7.10;99.90;;;;;;5061986;28;20051;-80
2021/12/26 01:43:01;;;;;;;4.82;2.80;;;-7.10;99.90;;;;;;5050659;28;20036;-81
2021/12/26 01:45:27;;;;;;;6.50;2.70;;;-7.10;99.90;;;;;;5057756;28;20509;-81
2021/12/26 01:47:58;;;;;;;4.20;2.60;;;-7.10;99.90;;;;;;5045843;28;20040;-81
2021/12/26 01:50:24;;;;;;;6.57;2.53;;;-7.20;99.90;;;;;;5048818;28;20044;-81
2021/12/26 01:52:49;;;;;;;4.05;2.53;;;-7.10;99.90;;;;;;5053914;28;20028;-81
2021/12/26 01:55:36;;;;;;;4.57;2.58;;;-7.10;99.90;;;;;;5056482;28;20337;-81
2021/12/26 01:58:02;;;;;;;6.25;2.60;;;-7.10;99.90;;;;;;5068667;28;20041;-81
2021/12/26 02:00:28;;;;;;;5.07;2.35;;;-7.00;99.90;;;;;;5078705;28;20081;-81
2021/12/26 02:02:54;;;;;;;3.47;2.38;;;-7.10;99.90;;;;;;5071561;28;20040;-80
2021/12/26 02:05:20;;;;;;;5.05;2.58;;;-7.10;99.90;;;;;;5069283;28;20475;-81
2021/12/26 02:07:46;;;;;;;3.50;2.60;;;-7.00;99.90;;;;;;5052070;28;20032;-81
2021/12/26 02:10:15;;;;;;;3.75;2.38;;;-7.00;99.90;;;;;;5052679;28;20072;-81
2021/12/26 02:12:42;;;;;;;5.30;3.17;;;-7.00;99.90;;;;;;5059667;28;20049;-81
2021/12/26 02:15:09;;;;;;;3.90;2.47;;;-7.00;99.90;;;;;;5061882;28;20109;-81
2021/12/26 02:17:35;;;;;;;2.83;2.20;;;-6.90;99.90;;;;;;5073991;28;20039;-81
2021/12/26 02:20:29;;;;;;;4.25;2.50;;;-6.90;99.90;;;;;;5065757;28;20510;-81
2021/12/26 02:23:01;;;;;;;4.43;2.80;;;-7.00;99.90;;;;;;5074281;28;20153;-81
2021/12/26 02:27:55;;;;;;;4.25;2.15;;;-6.90;99.90;;;;;;5067753;28;20076;-81
2021/12/26 02:30:22;;;;;;;4.72;2.03;;;-7.00;99.90;;;;;;5058760;28;20078;-81
2021/12/26 02:32:49;;;;;;;4.53;2.42;;;-7.00;99.90;;;;;;5068850;28;20170;-81
2021/12/26 02:35:16;;;;;;;4.47;2.30;;;-7.00;99.90;;;;;;5074882;28;20128;-80
2021/12/26 02:37:42;;;;;;;4.07;2.30;;;-7.00;99.90;;;;;;5073791;28;20131;-81
2021/12/26 02:40:08;;;;;;;4.18;2.30;;;-7.00;99.90;;;;;;5060479;28;20111;-80
2021/12/26 02:42:34;;;;;;;3.80;2.38;;;-7.10;99.90;;;;;;5069872;28;20383;-80
2021/12/26 02:45:00;;;;;;;3.67;2.45;;;-7.10;99.90;;;;;;5059080;28;20032;-81
2021/12/26 02:47:34;;;;;;;4.78;2.40;;;-7.10;99.90;;;;;;5075949;28;20367;-81
2021/12/26 02:50:13;;;;;;;6.00;2.40;;;-7.20;99.90;;;;;;5078073;28;20064;-81
2021/12/26 02:52:39;;;;;;;5.82;2.63;;;-7.20;99.90;;;;;;5053355;28;20048;-81
2021/12/26 02:55:06;;;;;;;3.38;2.20;;;-7.20;99.90;;;;;;5056598;28;20036;-81
2021/12/26 02:57:32;;;;;;;3.72;2.58;;;-7.20;99.90;;;;;;5051382;28;20177;-81
2021/12/26 03:00:20;;;;;;;4.20;2.40;;;-7.20;99.90;;;;;;5064250;28;20031;-81
2021/12/26 03:02:48;;;;;;;3.72;2.50;;;-7.20;99.90;;;;;;5071006;28;20043;-81
2021/12/26 03:05:15;;;;;;;4.55;2.97;;;-7.20;99.90;;;;;;5072251;28;20120;-81
2021/12/26 03:07:42;;;;;;;5.05;2.58;;;-7.20;99.90;;;;;;5054461;28;20505;-81
2021/12/26 03:10:17;;;;;;;5.75;2.63;;;-7.20;99.90;;;;;;5069338;28;20124;-81
2021/12/26 03:12:43;;;;;;;4.38;2.25;;;-7.20;99.90;;;;;;5053724;28;20336;-81
2021/12/26 03:15:10;;;;;;;7.43;2.47;;;-7.20;99.90;;;;;;5059732;28;20422;-81
2021/12/26 03:17:37;;;;;;;4.35;2.33;;;-7.20;99.90;;;;;;5054157;28;20514;-81
2021/12/26 03:20:08;;;;;;;4.97;2.33;;;-7.10;99.90;;;;;;5071996;28;20201;-80
2021/12/26 03:22:34;;;;;;;4.15;2.40;;;-7.20;99.90;;;;;;5054329;28;20539;-81
2021/12/26 03:25:00;;;;;;;5.97;2.65;;;-7.20;99.90;;;;;;5056722;28;20275;-81
2021/12/26 03:27:25;;;;;;;5.07;2.92;;;-7.20;99.90;;;;;;5051140;28;20153;-81
2021/12/26 03:29:51;;;;;;;3.25;2.25;;;-7.10;99.90;;;;;;5069645;28;20032;-81
2021/12/26 03:32:17;;;;;;;6.97;2.50;;;-7.20;99.90;;;;;;5048254;28;20049;-81
2021/12/26 03:34:47;;;;;;;3.67;2.22;;;-7.20;99.90;;;;;;5057540;28;20035;-81
2021/12/26 03:37:13;;;;;;;6.20;2.63;;;-7.20;99.90;;;;;;5069139;28;20043;-81
2021/12/26 03:39:39;;;;;;;4.80;2.60;;;-7.20;99.90;;;;;;5055108;28;20124;-80
2021/12/26 03:42:06;;;;;;;3.15;2.17;;;-7.20;99.90;;;;;;5081403;28;20151;-81
2021/12/26 03:44:32;;;;;;;5.95;2.60;;;-7.20;99.90;;;;;;5059373;28;20113;-81
2021/12/26 03:46:57;;;;;;;4.82;2.83;;;-7.20;99.90;;;;;;5069546;28;20440;-80
2021/12/26 03:49:23;;;;;;;3.47;2.15;;;-7.20;99.90;;;;;;5068283;28;20525;-81
2021/12/26 03:51:49;;;;;;;4.25;2.55;;;-7.20;99.90;;;;;;5051065;28;20087;-80
2021/12/26 03:54:17;;;;;;;4.05;2.53;;;-7.20;99.90;;;;;;5063645;28;20568;-80
2021/12/26 03:56:43;;;;;;;5.57;2.65;;;-7.30;99.90;;;;;;5058732;28;20393;-81
2021/12/26 03:59:11;;;;;;;4.00;2.53;;;-7.30;99.90;;;;;;5049940;28;20032;-80
2021/12/26 04:01:37;;;;;;;3.47;2.28;;;-7.40;99.90;;;;;;5060684;28;20048;-81
2021/12/26 04:04:03;;;;;;;6.05;2.33;;;-7.40;99.90;;;;;;5045790;28;20129;-81
2021/12/26 04:06:29;;;;;;;4.43;2.45;;;-7.40;99.90;;;;;;5068070;28;20040;-81
2021/12/26 04:08:55;;;;;;;4.25;2.42;;;-7.40;99.90;;;;;;5046841;28;20193;-81
2021/12/26 04:11:24;;;;;;;4.78;2.30;;;-7.50;99.90;;;;;;5047668;28;20198;-81
2021/12/26 04:13:50;;;;;;;5.47;2.40;;;-7.40;99.90;;;;;;5067556;28;20568;-81
2021/12/26 04:16:15;;;;;;;4.45;3.20;;;-7.50;99.90;;;;;;5057128;28;20036;-81
2021/12/26 04:18:41;;;;;;;4.47;2.40;;;-7.40;99.90;;;;;;5052398;28;20028;-81
2021/12/26 04:21:07;;;;;;;4.75;2.72;;;-7.40;99.90;;;;;;5051835;28;20032;-81
2021/12/26 04:23:36;;;;;;;5.90;2.72;;;-7.50;99.90;;;;;;5064312;28;20449;-81
2021/12/26 04:26:02;;;;;;;3.60;2.55;;;-7.50;99.90;;;;;;5055036;28;20468;-80
2021/12/26 04:28:28;;;;;;;4.53;2.50;;;-7.50;99.90;;;;;;5066938;28;20119;-81
2021/12/26 04:30:54;;;;;;;3.90;2.60;;;-7.50;99.90;;;;;;5077593;28;20430;-80
2021/12/26 04:33:21;;;;;;;4.72;2.70;;;-7.60;99.90;;;;;;5055315;28;20048;-80
2021/12/26 04:35:47;;;;;;;4.75;2.22;;;-7.60;99.90;;;;;;5066962;28;20085;-81
2021/12/26 04:38:12;;;;;;;4.43;2.45;;;-7.60;99.90;;;;;;5073149;28;20036;-80
2021/12/26 04:40:38;;;;;;;3.85;2.35;;;-7.60;99.90;;;;;;5065932;28;20040;-80
2021/12/26 04:43:04;;;;;;;4.72;2.70;;;-7.60;99.90;;;;;;5050865;28;20592;-80
2021/12/26 04:45:30;;;;;;;4.47;2.28;;;-7.60;99.90;;;;;;5058137;28;20059;-81
2021/12/26 04:47:56;;;;;;;4.53;2.78;;;-7.60;99.90;;;;;;5064838;28;20055;-81
2021/12/26 04:50:24;;;;;;;5.00;2.65;;;-7.60;99.90;;;;;;5072424;28;20494;-81
2021/12/26 04:52:51;;;;;;;3.95;2.80;;;-7.50;99.90;;;;;;5051512;28;20041;-81
2021/12/26 04:55:21;;;;;;;5.47;2.60;;;-7.50;99.90;;;;;;5069151;28;20353;-81
2021/12/26 04:57:47;;;;;;;5.20;2.70;;;-7.50;99.90;;;;;;5051222;28;20040;-81
2021/12/26 05:00:18;;;;;;;4.28;2.58;;;-7.50;99.90;;;;;;5059605;28;20035;-80
2021/12/26 05:02:45;;;;;;;3.97;2.78;;;-7.50;99.90;;;;;;5052741;28;20044;-81
2021/12/26 05:05:12;;;;;;;3.50;2.30;;;-7.50;99.90;;;;;;5052387;28;20128;-81
2021/12/26 05:07:39;;;;;;;4.00;2.65;;;-7.50;99.90;;;;;;5052840;28;20063;-81
2021/12/26 05:10:06;;;;;;;5.93;3.28;;;-7.40;99.90;;;;;;5064732;28;20055;-81
2021/12/26 05:12:32;;;;;;;4.85;3.17;;;-7.50;99.90;;;;;;5050234;28;20044;-81
2021/12/26 05:14:58;;;;;;;4.53;2.65;;;-7.40;99.90;;;;;;5051837;28;20179;-81
2021/12/26 05:17:27;;;;;;;5.03;2.95;;;-7.40;99.90;;;;;;5069038;28;20040;-81
2021/12/26 05:19:53;;;;;;;7.97;2.92;;;-7.40;99.90;;;;;;5053324;28;20066;-81
2021/12/26 05:22:20;;;;;;;6.45;3.35;;;-7.40;99.90;;;;;;5064670;28;20039;-80
2021/12/26 05:24:46;;;;;;;9.43;3.60;;;-7.40;99.90;;;;;;5053207;28;20047;-81
2021/12/26 05:27:11;;;;;;;5.72;3.25;;;-7.40;99.90;;;;;;5051487;28;20040;-81
2021/12/26 05:29:37;;;;;;;4.78;3.15;;;-7.40;99.90;;;;;;5072815;28;20151;-81
2021/12/26 05:32:03;;;;;;;5.55;3.30;;;-7.40;99.90;;;;;;5044885;28;20506;-80
2021/12/26 05:34:29;;;;;;;5.93;3.45;;;-7.30;99.90;;;;;;5067983;28;20032;-81
2021/12/26 05:36:54;;;;;;;4.75;2.78;;;-7.30;99.90;;;;;;5045480;28;20399;-81
2021/12/26 05:39:20;;;;;;;6.75;3.45;;;-7.40;99.90;;;;;;5048319;28;20040;-81
2021/12/26 05:41:49;;;;;;;8.50;3.75;;;-7.30;99.90;;;;;;5060990;28;20040;-80
2021/12/26 05:44:15;;;;;;;6.55;3.63;;;-7.40;99.90;;;;;;5062435;28;20032;-80
2021/12/26 05:46:41;;;;;;;6.93;3.28;;;-7.40;99.90;;;;;;5054229;28;20031;-81
2021/12/26 05:49:07;;;;;;;5.53;3.10;;;-7.40;99.90;;;;;;5065726;28;20074;-80
2021/12/26 05:51:36;;;;;;;7.03;3.40;;;-7.40;99.90;;;;;;5062298;28;20180;-81
2021/12/26 05:54:04;;;;;;;5.63;3.88;;;-7.40;99.90;;;;;;5066083;28;20166;-80
2021/12/26 05:56:30;;;;;;;7.32;3.60;;;-7.40;99.90;;;;;;5070480;28;20048;-81
2021/12/26 05:58:55;;;;;;;6.97;3.50;;;-7.40;99.90;;;;;;5063001;28;20036;-81
2021/12/26 06:01:21;;;;;;;6.70;3.40;;;-7.30;99.90;;;;;;5056579;28;20127;-81
2021/12/26 06:03:47;;;;;;;5.47;3.17;;;-7.30;99.90;;;;;;5043384;28;20043;-80
2021/12/26 06:06:16;;;;;;;8.95;3.70;;;-7.30;99.90;;;;;;5051277;28;20044;-81
2021/12/26 06:08:41;;;;;;;6.70;3.70;;;-7.30;99.90;;;;;;5051235;28;20044;-80
2021/12/26 06:11:07;;;;;;;5.55;3.47;;;-7.40;99.90;;;;;;5068382;28;20066;-81
2021/12/26 06:13:33;;;;;;;7.55;3.78;;;-7.40;99.90;;;;;;5049197;28;21267;-81
2021/12/26 06:16:00;;;;;;;5.82;3.40;;;-7.40;99.90;;;;;;5067871;28;20491;-81
2021/12/26 06:18:25;;;;;;;8.13;3.28;;;-7.40;99.90;;;;;;5049239;28;20150;-80
2021/12/26 06:20:51;;;;;;;5.30;3.42;;;-7.40;99.90;;;;;;5066894;28;20071;-80
2021/12/26 06:23:17;;;;;;;4.75;3.20;;;-7.40;99.90;;;;;;5046702;28;20101;-81
2021/12/26 06:25:43;;;;;;;5.40;3.33;;;-7.40;99.90;;;;;;5060926;28;20110;-81
2021/12/26 06:28:08;;;;;;;5.97;3.40;;;-7.40;99.90;;;;;;5064489;28;20067;-81
2021/12/26 06:30:35;;;;;;;5.47;3.60;;;-7.40;99.90;;;;;;5065429;28;20127;-80
2021/12/26 06:33:01;;;;;;;5.40;3.30;;;-7.30;99.90;;;;;;5062867;28;20179;-81
2021/12/26 06:35:27;;;;;;;5.80;3.83;;;-7.30;99.90;;;;;;5053086;28;20123;-81
2021/12/26 06:37:53;;;;;;;6.22;3.58;;;-7.30;99.90;;;;;;5042247;28;20467;-81
2021/12/26 06:40:19;;;;;;;5.78;3.40;;;-7.30;99.90;;;;;;5048060;28;20036;-81
2021/12/26 06:42:46;;;;;;;6.03;3.00;;;-7.30;99.90;;;;;;5053811;28;20402;-81
2021/12/26 06:45:15;;;;;;;5.88;3.20;;;-7.30;99.90;;;;;;5069545;28;20090;-81
2021/12/26 06:47:45;;;;;;;6.38;3.50;;;-7.30;99.90;;;;;;5063486;28;20037;-80
2021/12/26 06:50:12;;;;;;;4.53;3.13;;;-7.30;99.90;;;;;;5053417;28;20129;-81
2021/12/26 06:52:38;;;;;;;6.20;3.55;;;-7.40;99.90;;;;;;5064481;28;20665;-81
2021/12/26 06:55:04;;;;;;;5.78;3.20;;;-7.40;99.90;;;;;;5066082;28;20325;-81
2021/12/26 06:57:30;;;;;;;5.20;3.80;;;-7.40;99.90;;;;;;5049586;28;20032;-81
2021/12/26 06:59:56;;;;;;;5.05;3.50;;;-7.40;99.90;;;;;;5054947;28;20047;-80
2021/12/26 07:02:22;;;;;;;6.30;3.38;;;-7.40;99.90;;;;;;5051289;28;20063;-80
2021/12/26 07:04:47;;;;;;;6.18;3.85;;;-7.40;99.90;;;;;;5051855;28;20407;-81
2021/12/26 07:07:13;;;;;;;9.15;4.13;;;-7.40;99.90;;;;;;5071004;28;20678;-80
2021/12/26 07:09:43;;;;;;;7.38;4.25;;;-7.50;99.90;;;;;;5072512;28;20035;-80
2021/12/26 07:12:11;;;;;;;12.45;5.53;;;-7.50;99.90;;;;;;5070886;28;20198;-81
2021/12/26 07:14:36;;;;;;;11.98;7.15;;;-7.50;99.90;;;;;;5050652;28;20515;-80
2021/12/26 07:17:02;;;;;;;10.27;4.80;;;-7.60;99.90;;;;;;5055986;28;20048;-81
2021/12/26 07:19:28;;;;;;;6.45;3.92;;;-7.50;99.90;;;;;;5055175;28;20471;-80
2021/12/26 07:21:54;;;;;;;6.97;4.22;;;-7.60;99.90;;;;;;5069453;28;20045;-80
2021/12/26 07:24:22;;;;;;;7.10;5.03;;;-7.60;99.90;;;;;;5061811;28;20037;-80
2021/12/26 07:26:48;;;;;;;6.57;4.38;;;-7.60;99.90;;;;;;5064283;28;20036;-80
2021/12/26 07:29:13;;;;;;;7.68;4.72;;;-7.50;99.90;;;;;;5051511;28;20035;-80
2021/12/26 07:31:39;;;;;;;7.85;4.43;;;-7.60;99.90;;;;;;5050168;28;20139;-80
2021/12/26 07:34:05;;;;;;;6.60;4.70;;;-7.60;99.90;;;;;;5042848;28;20044;-81
2021/12/26 07:36:31;;;;;;;7.05;4.60;;;-7.60;99.90;;;;;;5051705;28;20040;-81
2021/12/26 07:38:56;;;;;;;6.63;5.25;;;-7.60;99.90;;;;;;5045641;28;20592;-80
2021/12/26 07:41:22;;;;;;;6.60;5.20;;;-7.50;99.90;;;;;;5045991;28;20029;-80
2021/12/26 07:43:51;;;;;;;7.13;5.03;;;-7.50;99.90;;;;;;5070026;28;21246;-80
2021/12/26 07:46:17;;;;;;;7.15;4.75;;;-7.50;99.90;;;;;;5052156;28;20048;-80
2021/12/26 07:48:43;;;;;;;9.02;5.13;;;-7.40;99.90;;;;;;5054395;28;20036;-81
2021/12/26 07:51:09;;;;;;;10.55;5.25;;;-7.40;99.90;;;;;;5052389;28;20087;-80
2021/12/26 07:53:38;;;;;;;7.28;3.95;;;-7.40;99.90;;;;;;5061934;28;20072;-81
2021/12/26 07:56:04;;;;;;;6.57;4.25;;;-7.20;99.90;;;;;;5064620;28;20111;-81
2021/12/26 07:58:30;;;;;;;7.03;4.25;;;-7.20;99.90;;;;;;5046275;28;20270;-80
2021/12/26 08:00:56;;;;;;;6.95;4.70;;;-7.20;99.90;;;;;;5064781;28;20028;-81
2021/12/26 08:03:22;;;;;;;7.60;4.97;;;-7.10;99.90;;;;;;5063684;28;20111;-81
2021/12/26 08:05:48;;;;;;;6.53;4.18;;;-7.20;99.90;;;;;;5075881;28;20091;-80
2021/12/26 08:08:13;;;;;;;5.90;4.10;;;-7.20;99.90;;;;;;5069687;28;20132;-80
2021/12/26 08:10:39;;;;;;;6.28;4.22;;;-7.20;99.90;;;;;;5068819;28;20193;-80
2021/12/26 08:13:05;;;;;;;6.03;3.90;;;-7.10;99.90;;;;;;5054288;28;20142;-80
2021/12/26 08:15:31;;;;;;;7.22;4.15;;;-7.10;99.90;;;;;;5072952;28;20031;-80
2021/12/26 08:17:57;;;;;;;7.07;4.50;;;-7.00;99.90;;;;;;5053411;28;20483;-80
2021/12/26 08:20:23;;;;;;;7.00;4.32;;;-6.90;99.90;;;;;;5052977;28;20542;-81
2021/12/26 08:22:49;;;;;;;8.02;4.93;;;-6.90;99.90;;;;;;5073153;28;20044;-80
2021/12/26 08:25:14;;;;;;;9.43;4.40;;;-6.80;99.90;;;;;;5054195;28;20117;-81
2021/12/26 08:27:40;;;;;;;7.32;4.63;;;-6.70;99.90;;;;;;5047785;28;20056;-80
2021/12/26 08:30:06;;;;;;;7.00;4.47;;;-6.70;99.90;;;;;;5053532;28;20113;-80
2021/12/26 08:32:35;;;;;;;11.65;5.78;;;-6.60;99.90;;;;;;5055234;28;20055;-80
2021/12/26 08:35:04;;;;;;;6.68;4.60;;;-6.50;99.90;;;;;;5075334;28;20055;-81
2021/12/26 08:37:31;;;;;;;7.63;5.72;;;-6.40;99.90;;;;;;5073344;28;20066;-80
2021/12/26 08:39:56;;;;;;;8.30;5.40;;;-6.40;99.90;;;;;;5052218;28;20606;-80
2021/12/26 08:42:22;;;;;;;6.72;4.80;;;-6.30;99.90;;;;;;5057024;28;20052;-80
2021/12/26 08:44:51;;;;;;;8.75;4.97;;;-6.20;99.90;;;;;;5075994;27;20047;-80
2021/12/26 08:47:20;;;;;;;6.30;4.88;;;-6.20;99.90;;;;;;5058672;28;20044;-81
2021/12/26 08:49:48;;;;;;;8.02;4.80;;;-6.20;99.90;;;;;;5054712;28;20120;-81
2021/12/26 08:52:14;;;;;;;6.18;4.65;;;-6.00;99.90;;;;;;5067885;28;20396;-80
2021/12/26 08:54:40;;;;;;;6.35;4.30;;;-6.00;99.90;;;;;;5069438;28;20117;-81
2021/12/26 08:57:07;;;;;;;6.07;4.90;;;-5.90;99.90;;;;;;5064932;28;20032;-81
2021/12/26 08:59:33;;;;;;;10.00;6.15;;;-5.80;99.90;;;;;;5053298;28;20032;-80
2021/12/26 09:02:07;;;;;;;7.55;5.53;;;-5.80;99.90;;;;;;5052236;28;20036;-81
2021/12/26 09:04:33;;;;;;;9.25;5.07;;;-5.60;99.90;;;;;;5069946;28;20098;-80
2021/12/26 09:06:59;;;;;;;9.77;6.50;;;-5.60;99.90;;;;;;5050826;28;20380;-80
2021/12/26 09:09:27;;;;;;;7.32;5.50;;;-5.50;99.90;;;;;;5056733;28;20048;-81
2021/12/26 09:11:53;;;;;;;8.48;5.80;;;-5.50;99.90;;;;;;5056711;28;20032;-80
2021/12/26 09:14:19;;;;;;;7.63;5.68;;;-5.50;99.90;;;;;;5077526;28;20047;-80
2021/12/26 09:16:45;;;;;;;8.40;5.43;;;-5.40;99.90;;;;;;5059400;28;20050;-80
2021/12/26 09:19:10;;;;;;;9.45;6.10;;;-5.40;99.90;;;;;;5061664;28;20118;-80
2021/12/26 09:21:36;;;;;;;8.15;5.75;;;-5.30;99.90;;;;;;5071904;28;20526;-82
2021/12/26 09:24:07;;;;;;;8.82;5.95;;;-5.20;99.90;;;;;;5052869;28;20101;-81
2021/12/26 09:26:34;;;;;;;8.25;5.60;;;-5.20;99.90;;;;;;5052551;28;20040;-81
2021/12/26 09:29:00;;;;;;;6.93;5.00;;;-5.20;99.90;;;;;;5057634;28;20063;-81
2021/12/26 09:31:26;;;;;;;10.32;6.35;;;-5.00;99.90;;;;;;5074491;28;20667;-83
2021/12/26 09:33:52;;;;;;;10.30;6.20;;;-5.00;99.90;;;;;;5040607;28;20060;-84
2021/12/26 09:36:19;;;;;;;8.05;5.65;;;-4.90;99.90;;;;;;5041456;28;20376;-84
2021/12/26 09:38:48;;;;;;;8.25;5.22;;;-4.90;99.90;;;;;;5039136;28;20040;-83
2021/12/26 09:41:14;;;;;;;6.93;5.22;;;-4.80;99.90;;;;;;5039010;28;20040;-82
2021/12/26 09:43:40;;;;;;;8.27;5.72;;;-4.70;99.90;;;;;;5040027;28;20052;-80
2021/12/26 09:46:06;;;;;;;9.05;5.97;;;-4.70;99.90;;;;;;5043396;28;20096;-79
2021/12/26 09:48:31;;;;;;;7.72;5.97;;;-4.60;99.90;;;;;;5059825;28;20051;-79
2021/12/26 09:50:57;;;;;;;8.10;5.63;;;-4.60;99.90;;;;;;5055542;28;20087;-79
2021/12/26 09:53:23;;;;;;;10.25;5.90;;;-4.60;99.90;;;;;;5056633;28;20040;-78
2021/12/26 09:55:50;;;;;;;7.70;5.35;;;-4.50;99.90;;;;;;5041573;28;20036;-78
2021/12/26 09:58:15;;;;;;;9.57;5.93;;;-4.40;99.90;;;;;;5041421;28;20062;-78
2021/12/26 10:00:44;;;;;;;9.85;5.88;;;-4.40;99.90;;;;;;5043277;28;20041;-79
2021/12/26 10:03:36;;;;;;;7.40;5.55;;;-4.30;99.90;;;;;;5044377;28;20095;-78
2021/12/26 10:06:13;;;;;;;10.65;6.13;;;-4.30;99.90;;;;;;5035784;28;20698;-79
2021/12/26 10:09:20;;;;;;;8.88;5.88;;;-4.20;99.90;;;;;;5050746;28;20147;-79
2021/12/26 10:11:52;;;;;;;7.55;5.03;;;-4.20;99.90;;;;;;5032814;28;20380;-78
2021/12/26 10:14:23;;;;;;;8.07;5.15;;;-4.10;99.90;;;;;;5071097;28;20036;-79
2021/12/26 10:16:56;;;;;;;7.28;5.03;;;-4.00;99.90;;;;;;5037955;28;20040;-78
2021/12/26 10:19:22;;;;;;;6.15;4.82;;;-3.90;99.90;;;;;;5036320;28;20037;-79
2021/12/26 10:21:53;;;;;;;8.73;4.95;;;-3.90;99.90;;;;;;5034912;28;20032;-79
2021/12/26 10:24:37;;;;;;;8.20;5.65;;;-3.80;99.90;;;;;;5045704;28;20454;-79
2021/12/26 10:27:06;;;;;;;7.78;5.47;;;-3.70;99.90;;;;;;5051378;28;20051;-79
2021/12/26 10:29:47;;;;;;;6.10;4.75;;;-3.60;99.90;;;;;;5056505;28;20048;-78
2021/12/26 10:32:19;;;;;;;6.63;4.82;;;-3.60;99.90;;;;;;5046873;28;20412;-79
2021/12/26 10:34:51;;;;;;;7.63;4.75;;;-3.50;99.90;;;;;;5057988;28;20453;-79
2021/12/26 10:37:19;;;;;;;8.18;5.55;;;-3.40;99.90;;;;;;5054838;28;20506;-78
2021/12/26 10:39:49;;;;;;;7.13;4.70;;;-3.30;99.90;;;;;;5071247;28;20039;-78
2021/12/26 10:42:24;;;;;;;6.20;4.90;;;-3.30;99.90;;;;;;5057739;28;20043;-78
2021/12/26 10:44:55;;;;;;;7.40;4.50;;;-3.20;99.90;;;;;;5064584;28;20164;-78
2021/12/26 10:47:24;;;;;;;7.28;5.18;;;-3.20;99.90;;;;;;5058078;28;20075;-78
2021/12/26 10:49:58;;;;;;;9.10;5.25;;;-3.10;99.90;;;;;;5066873;28;20071;-78
2021/12/26 10:52:27;;;;;;;6.18;4.68;;;-3.10;99.90;;;;;;5075167;28;20076;-78
2021/12/26 10:55:05;;;;;;;7.22;4.43;;;-3.00;99.90;;;;;;5056116;28;20087;-79
2021/12/26 10:57:39;;;;;;;7.15;4.38;;;-2.90;99.90;;;;;;5053580;28;20052;-78
2021/12/26 11:00:18;;;;;;;6.75;4.82;;;-2.90;99.90;;;;;;5058999;28;20044;-78
2021/12/26 11:02:48;;;;;;;11.38;5.93;;;-2.80;99.90;;;;;;5056116;28;20717;-79
2021/12/26 11:05:29;;;;;;;6.63;4.72;;;-2.80;99.90;;;;;;5080664;28;20509;-79
2021/12/26 11:08:07;;;;;;;6.40;4.78;;;-2.70;99.90;;;;;;5074697;28;20498;-79
2021/12/26 11:10:40;;;;;;;7.05;4.78;;;-2.60;99.90;;;;;;5059337;28;20425;-79
2021/12/26 11:13:18;;;;;;;9.10;5.20;;;-2.60;99.90;;;;;;5068467;28;20046;-79
2021/12/26 11:15:46;;;;;;;9.10;4.95;;;-2.50;99.90;;;;;;5056827;28;20039;-79
2021/12/26 11:18:14;;;;;;;6.35;4.55;;;-2.50;99.90;;;;;;5075633;28;20495;-79
2021/12/26 11:20:46;;;;;;;8.95;4.28;;;-2.40;99.90;;;;;;5064564;28;20194;-79
2021/12/26 11:23:18;;;;;;;6.53;4.22;;;-2.40;99.90;;;;;;5073968;28;20047;-79
2021/12/26 11:25:50;;;;;;;6.82;4.38;;;-2.40;99.90;;;;;;5080143;28;20146;-79
2021/12/26 11:28:25;;;;;;;6.05;4.13;;;-2.30;99.90;;;;;;5076457;28;20039;-79
2021/12/26 11:30:56;;;;;;;6.00;4.07;;;-2.30;99.90;;;;;;5056804;28;20091;-79
2021/12/26 11:33:22;;;;;;;7.10;4.57;;;-2.20;99.90;;;;;;5067955;28;20063;-79
2021/12/26 11:35:52;;;;;;;5.80;4.32;;;-2.20;99.90;;;;;;5060933;28;20439;-79
2021/12/26 11:38:22;;;;;;;8.23;4.35;;;-2.20;99.90;;;;;;5061120;28;20132;-79
2021/12/26 11:40:50;;;;;;;6.15;4.00;;;-2.10;99.90;;;;;;5056278;28;20384;-79
2021/12/26 11:43:36;;;;;;;5.70;3.97;;;-2.00;99.90;;;;;;5069266;28;20036;-79
2021/12/26 11:46:23;;;;;;;6.32;4.03;;;-2.00;99.90;;;;;;5074855;28;20067;-79
2021/12/26 11:48:59;;;;;;;5.75;4.10;;;-2.00;99.90;;;;;;5071472;28;20071;-79
2021/12/26 11:51:43;;;;;;;5.65;4.13;;;-1.90;99.90;;;;;;5051801;28;20036;-79
2021/12/26 11:54:14;;;;;;;6.78;3.95;;;-1.90;99.90;;;;;;5043421;28;20151;-78
2021/12/26 11:57:19;;;;;;;8.00;3.83;;;-1.80;99.90;;;;;;5061969;28;20036;-78
2021/12/26 12:00:07;;;;;;;4.93;3.83;;;-1.80;99.90;;;;;;5051201;28;20032;-79
2021/12/26 12:02:49;;;;;;;5.60;3.90;;;-1.70;99.90;;;;;;5050877;28;20051;-78
2021/12/26 12:05:18;;;;;;;8.60;3.90;;;-1.60;99.90;;;;;;5048221;28;20036;-79
2021/12/26 12:07:51;;;;;;;5.80;4.20;;;-1.60;99.90;;;;;;5063753;28;20040;-79
2021/12/26 12:10:35;;;;;;;6.78;3.92;;;-1.60;99.90;;;;;;5047123;28;20300;-79
2021/12/26 12:13:05;;;;;;;7.05;4.03;;;-1.50;99.90;;;;;;5060125;28;20067;-79
2021/12/26 12:15:44;;;;;;;5.55;3.85;;;-1.50;99.90;;;;;;5061132;28;20033;-79
2021/12/26 12:18:18;;;;;;;6.10;4.20;;;-1.50;99.90;;;;;;5046473;28;20093;-79
2021/12/26 12:20:44;;;;;;;7.85;4.28;;;-1.40;99.90;;;;;;5044486;28;20148;-79
2021/12/26 12:23:14;;;;;;;6.57;4.57;;;-1.40;99.90;;;;;;5045226;28;20632;-79
2021/12/26 12:25:52;;;;;;;6.10;4.13;;;-1.40;99.90;;;;;;5064962;28;20460;-79
2021/12/26 12:28:24;;;;;;;9.95;4.35;;;-1.30;99.90;;;;;;5045753;28;20440;-79
2021/12/26 12:31:07;;;;;;;7.15;4.45;;;-1.30;99.90;;;;;;5045962;28;20109;-79
2021/12/26 12:33:34;;;;;;;7.45;4.57;;;-1.30;99.90;;;;;;5047854;28;20159;-79
2021/12/26 12:36:00;;;;;;;8.85;4.63;;;-1.20;99.90;;;;;;5060885;28;20663;-79
2021/12/26 12:38:34;;;;;;;6.75;4.43;;;-1.20;99.90;;;;;;5043176;28;20075;-79
2021/12/26 12:41:02;;;;;;;9.10;5.00;;;-1.20;99.90;;;;;;5056001;28;20590;-79
2021/12/26 12:43:29;;;;;;;7.75;4.95;;;-1.10;99.90;;;;;;5058839;28;20048;-79
2021/12/26 12:45:56;;;;;;;8.10;4.88;;;-1.10;99.90;;;;;;5067384;28;20067;-79
2021/12/26 12:48:28;;;;;;;6.15;4.32;;;-1.10;99.90;;;;;;5047746;28;20036;-79
2021/12/26 12:51:13;;;;;;;7.45;4.63;;;-1.00;99.90;;;;;;5061413;28;20036;-80
2021/12/26 12:53:44;;;;;;;6.65;4.13;;;-1.10;99.90;;;;;;5065677;28;20064;-79
2021/12/26 12:56:30;;;;;;;6.78;4.43;;;-1.10;99.90;;;;;;5044855;28;20047;-79